Time;durP1;ratioP1;P1;durP2;ratioP2;P2;SDS_P1;SDS_P2;PMS_P1;PMS_P2;Temp;Humidity;BMP_temperature;BMP_pressure;BME280_temperature;BME280_humidity;BME280_pressure;Samples;Min_cycle;Max_cycle;Signal;HPM_P1;HPM_P2
2021/06/16 00:02:11;;;;;;;8.65;5.38;;;;;;;17.25;70.58;99659.16;4996460;28;20058;-62
2021/06/16 00:04:43;;;;;;;10.13;5.97;;;;;;;17.26;70.03;99656.50;4996204;28;20138;-64
2021/06/16 00:07:16;;;;;;;11.50;6.15;;;;;;;17.20;70.14;99656.66;4995825;28;20050;-63
2021/06/16 00:09:49;;;;;;;8.00;5.30;;;;;;;17.15;69.91;99658.56;4996236;28;20065;-63
2021/06/16 00:12:24;;;;;;;8.77;5.57;;;;;;;17.08;69.96;99659.63;4996485;28;20057;-64
2021/06/16 00:14:56;;;;;;;8.15;5.57;;;;;;;17.02;70.46;99664.91;4996220;28;20062;-63
2021/06/16 00:17:29;;;;;;;10.00;5.47;;;;;;;16.91;70.81;99666.09;4995915;28;20050;-63
2021/06/16 00:20:01;;;;;;;8.25;5.80;;;;;;;16.80;71.13;99666.38;4996118;28;20403;-63
2021/06/16 00:22:36;;;;;;;9.15;6.18;;;;;;;16.76;71.30;99662.19;4978721;28;20050;-63
2021/06/16 00:25:09;;;;;;;10.93;5.53;;;;;;;16.74;71.41;99658.81;4995013;28;20046;-63
2021/06/16 00:27:41;;;;;;;9.75;5.80;;;;;;;16.74;71.63;99658.81;4995932;28;20429;-64
2021/06/16 00:30:16;;;;;;;9.65;5.70;;;;;;;16.64;71.93;99647.03;4995867;28;20062;-63
2021/06/16 00:32:45;;;;;;;8.98;5.55;;;;;;;16.57;72.14;99648.94;4995908;28;20073;-63
2021/06/16 00:35:18;;;;;;;10.20;5.82;;;;;;;16.54;72.15;99655.88;4995774;28;20471;-63
2021/06/16 00:37:54;;;;;;;8.68;5.22;;;;;;;16.50;72.15;99654.25;4995350;28;20058;-63
2021/06/16 00:40:26;;;;;;;7.90;5.50;;;;;;;16.47;71.88;99664.63;4995743;28;20078;-63
2021/06/16 00:43:00;;;;;;;8.57;5.05;;;;;;;16.47;72.05;99659.47;4995724;28;20062;-62
2021/06/16 00:45:33;;;;;;;8.23;5.10;;;;;;;16.33;71.86;99661.53;4995663;28;20061;-62
2021/06/16 00:48:06;;;;;;;10.88;5.47;;;;;;;16.36;71.76;99651.19;4995512;28;20050;-63
2021/06/16 00:50:40;;;;;;;8.55;4.90;;;;;;;16.35;71.36;99658.06;4995528;28;20466;-63
2021/06/16 00:53:14;;;;;;;8.10;5.07;;;;;;;16.28;71.29;99646.22;4996017;28;20445;-63
2021/06/16 00:55:47;;;;;;;7.95;5.00;;;;;;;16.05;71.45;99646.75;4995414;28;20074;-63
2021/06/16 00:58:19;;;;;;;7.30;4.97;;;;;;;16.07;72.01;99650.16;4995330;28;20500;-62
2021/06/16 01:00:57;;;;;;;9.40;5.47;;;;;;;16.10;71.74;99647.47;4995351;28;20058;-63
2021/06/16 01:03:36;;;;;;;9.07;5.43;;;;;;;16.11;71.94;99645.75;4995296;28;20061;-63
2021/06/16 01:06:18;;;;;;;6.90;4.40;;;;;;;16.24;71.76;99646.31;4977974;28;20058;-64
2021/06/16 01:09:00;;;;;;;9.55;4.93;;;;;;;16.04;71.51;99647.63;4995194;28;20077;-63
2021/06/16 01:11:32;;;;;;;10.10;5.40;;;;;;;15.87;72.30;99642.03;4995154;28;20050;-63
2021/06/16 01:14:13;;;;;;;7.88;4.60;;;;;;;15.88;72.42;99642.88;4995051;28;20495;-63
2021/06/16 01:16:51;;;;;;;7.15;4.50;;;;;;;15.95;72.58;99637.56;4995017;28;20385;-64
2021/06/16 01:19:47;;;;;;;10.20;4.80;;;;;;;15.91;72.09;99643.66;4994995;28;20058;-63
2021/06/16 01:22:28;;;;;;;8.40;5.25;;;;;;;15.91;72.42;99637.63;4992982;28;20121;-62
2021/06/16 01:25:08;;;;;;;9.13;4.88;;;;;;;15.96;71.96;99646.97;4993990;28;20110;-63
2021/06/16 01:27:42;;;;;;;6.00;4.40;;;;;;;15.91;71.72;99645.38;4994941;28;20055;-63
2021/06/16 01:30:12;;;;;;;6.22;4.50;;;;;;;15.91;71.35;99642.78;4994786;28;20062;-62
2021/06/16 01:32:46;;;;;;;8.02;4.47;;;;;;;15.89;71.79;99629.97;4994546;28;20054;-63
2021/06/16 01:35:19;;;;;;;6.78;4.45;;;;;;;15.84;71.88;99647.25;4994727;28;20050;-63
2021/06/16 01:37:52;;;;;;;9.73;4.85;;;;;;;15.93;71.68;99652.16;4994539;28;20054;-63
2021/06/16 01:40:24;;;;;;;10.13;5.20;;;;;;;15.89;70.96;99649.69;4994619;28;20062;-63
2021/06/16 01:42:59;;;;;;;11.88;4.60;;;;;;;15.68;71.23;99652.75;4994682;28;20460;-63
2021/06/16 01:45:34;;;;;;;7.82;4.50;;;;;;;15.55;72.07;99644.44;4994322;28;20081;-63
2021/06/16 01:48:12;;;;;;;6.53;4.03;;;;;;;15.60;71.98;99642.63;4994885;28;20058;-63
2021/06/16 01:50:45;;;;;;;9.77;4.90;;;;;;;15.61;71.34;99644.34;4994574;28;20408;-62
2021/06/16 01:53:20;;;;;;;11.52;4.70;;;;;;;15.57;70.95;99649.59;4994527;28;20400;-64
2021/06/16 01:55:53;;;;;;;8.68;4.97;;;;;;;15.66;71.03;99647.66;4994457;28;20081;-64
2021/06/16 01:58:27;;;;;;;7.10;4.53;;;;;;;15.37;71.16;99648.25;4994183;28;20056;-63
2021/06/16 02:00:59;;;;;;;9.90;4.78;;;;;;;15.36;71.90;99650.81;4994297;28;20176;-63
2021/06/16 02:03:32;;;;;;;8.98;4.72;;;;;;;15.36;72.06;99658.53;4994415;28;20050;-62
2021/06/16 02:06:06;;;;;;;8.45;4.72;;;;;;;15.35;72.54;99656.88;4994391;28;20064;-63
2021/06/16 02:08:40;;;;;;;8.00;4.72;;;;;;;15.39;72.46;99656.78;4994358;28;20090;-64
2021/06/16 02:11:17;;;;;;;7.13;4.65;;;;;;;15.43;72.19;99652.41;4994297;28;20054;-62
2021/06/16 02:13:54;;;;;;;7.20;4.18;;;;;;;15.45;72.12;99652.41;4994340;28;20061;-63
2021/06/16 02:16:47;;;;;;;6.95;4.20;;;;;;;15.27;72.10;99651.88;4994308;28;20053;-63
2021/06/16 02:19:20;;;;;;;7.78;4.60;;;;;;;15.03;72.20;99659.22;4953374;29;20055;-62
2021/06/16 02:21:54;;;;;;;9.35;5.10;;;;;;;15.01;72.87;99655.84;4953492;29;20482;-62
2021/06/16 02:24:30;;;;;;;7.18;4.60;;;;;;;15.01;72.64;99660.97;4953002;29;20079;-63
2021/06/16 02:27:02;;;;;;;10.95;5.15;;;;;;;15.04;72.84;99655.78;4953535;29;20605;-62
2021/06/16 02:29:36;;;;;;;9.77;4.80;;;;;;;14.96;72.69;99657.63;4953536;28;20051;-62
2021/06/16 02:32:06;;;;;;;12.30;5.25;;;;;;;14.93;72.63;99662.81;4957010;29;20063;-63
2021/06/16 02:34:39;;;;;;;8.68;4.75;;;;;;;14.94;73.05;99655.09;4957681;29;20604;-62
2021/06/16 02:37:19;;;;;;;12.88;5.05;;;;;;;14.99;73.01;99652.44;4964939;28;20055;-62
2021/06/16 02:39:53;;;;;;;;;;;;;;;15.04;72.74;99651.50;4978962;28;20058;-62
2021/06/16 02:42:27;;;;;;;7.38;4.80;;;;;;;15.10;72.78;99660.78;4978493;28;20427;-63
2021/06/16 02:45:02;;;;;;;7.70;4.53;;;;;;;15.14;72.58;99667.59;4978684;28;20054;-64
2021/06/16 02:47:40;;;;;;;11.70;4.95;;;;;;;15.14;72.81;99662.44;4978394;28;20400;-63
2021/06/16 02:50:14;;;;;;;9.10;4.90;;;;;;;15.25;73.24;99665.63;4978381;28;20098;-63
2021/06/16 02:52:48;;;;;;;8.60;4.65;;;;;;;15.45;72.55;99671.28;4978269;28;20105;-62
2021/06/16 02:55:23;;;;;;;10.05;4.90;;;;;;;15.60;72.65;99672.66;4978300;28;20054;-63
2021/06/16 02:57:56;;;;;;;9.57;5.15;;;;;;;15.74;72.33;99663.75;4978277;28;20496;-62
2021/06/16 03:00:31;;;;;;;8.32;4.88;;;;;;;15.84;71.81;99669.56;4978172;28;20059;-62
2021/06/16 03:03:06;;;;;;;10.00;4.95;;;;;;;15.92;71.45;99671.09;4978109;28;20063;-63
2021/06/16 03:05:40;;;;;;;8.82;4.93;;;;;;;16.01;71.01;99665.72;4978091;28;20063;-63
2021/06/16 03:08:14;;;;;;;13.38;4.85;;;;;;;16.02;71.23;99672.59;4978020;28;20051;-63
2021/06/16 03:10:48;;;;;;;12.23;5.38;;;;;;;16.10;71.17;99680.97;4977983;28;20050;-63
2021/06/16 03:13:24;;;;;;;9.30;4.60;;;;;;;16.12;71.19;99682.66;4977890;28;20547;-64
2021/06/16 03:15:59;;;;;;;7.47;4.63;;;;;;;16.21;70.35;99687.59;4977895;28;20448;-64
2021/06/16 03:18:32;;;;;;;8.57;4.82;;;;;;;16.25;70.37;99684.06;4977643;28;20374;-64
2021/06/16 03:21:05;;;;;;;7.13;4.53;;;;;;;16.28;70.47;99679.69;4978146;28;20086;-64
2021/06/16 03:23:38;;;;;;;8.23;4.95;;;;;;;16.29;70.36;99680.53;4977676;28;20141;-63
2021/06/16 03:26:11;;;;;;;7.15;4.32;;;;;;;16.31;69.96;99683.91;4992132;28;20057;-62
2021/06/16 03:28:44;;;;;;;7.50;4.60;;;;;;;16.32;70.16;99688.16;4997070;28;20051;-62
2021/06/16 03:31:19;;;;;;;14.63;5.32;;;;;;;16.30;70.38;99687.38;4997017;28;20109;-62
2021/06/16 03:33:53;;;;;;;8.43;4.93;;;;;;;16.35;71.02;99691.53;4996903;28;20065;-62
2021/06/16 03:36:26;;;;;;;10.77;5.47;;;;;;;16.46;70.60;99693.88;4996909;28;20558;-62
2021/06/16 03:38:59;;;;;;;7.93;5.50;;;;;;;16.55;70.08;99698.81;4996608;28;20050;-62
2021/06/16 03:41:29;;;;;;;7.38;4.88;;;;;;;16.58;69.61;99698.75;4996210;28;20085;-62
2021/06/16 03:44:03;;;;;;;8.63;5.32;;;;;;;16.57;69.77;99702.22;4996094;28;20050;-63
2021/06/16 03:46:36;;;;;;;10.57;5.53;;;;;;;16.55;69.80;99693.66;4996751;28;20046;-62
2021/06/16 03:49:10;;;;;;;9.55;5.60;;;;;;;16.64;69.47;99693.44;4996689;28;20046;-63
2021/06/16 03:51:42;;;;;;;10.13;5.30;;;;;;;16.72;69.49;99697.50;4996686;28;20508;-63
2021/06/16 03:54:15;;;;;;;9.13;5.32;;;;;;;16.80;68.66;99699.88;4996604;28;20461;-63
2021/06/16 03:56:49;;;;;;;8.77;5.03;;;;;;;16.92;67.68;99709.88;4996808;28;20054;-64
2021/06/16 03:59:23;;;;;;;8.05;4.97;;;;;;;16.96;67.27;99710.66;4996231;28;20491;-64
2021/06/16 04:01:56;;;;;;;8.15;4.82;;;;;;;17.01;66.69;99714.78;4996542;28;20050;-63
2021/06/16 04:04:32;;;;;;;8.82;4.28;;;;;;;17.04;66.40;99712.16;4996305;28;20496;-63
2021/06/16 04:07:06;;;;;;;12.10;5.25;;;;;;;17.07;65.94;99717.22;4996115;28;20445;-64
2021/06/16 04:09:43;;;;;;;8.57;4.50;;;;;;;17.10;65.56;99714.56;4996569;28;20405;-63
2021/06/16 04:12:16;;;;;;;7.82;4.70;;;;;;;17.12;65.78;99712.78;4996538;28;20516;-63
2021/06/16 04:14:49;;;;;;;8.32;4.32;;;;;;;17.15;66.21;99717.88;4996119;28;20056;-65
2021/06/16 04:17:24;;;;;;;10.07;4.70;;;;;;;17.21;66.31;99714.28;4996137;28;20054;-62
2021/06/16 04:19:56;;;;;;;9.20;4.68;;;;;;;17.29;65.97;99715.78;4996042;28;20077;-62
2021/06/16 04:22:29;;;;;;;8.15;3.95;;;;;;;17.37;65.60;99718.97;4996417;28;20456;-62
2021/06/16 04:25:01;;;;;;;6.30;4.43;;;;;;;17.47;65.60;99716.16;4995075;28;20058;-62
2021/06/16 04:27:30;;;;;;;7.28;4.53;;;;;;;17.51;65.16;99710.88;4996047;28;20050;-63
2021/06/16 04:30:04;;;;;;;9.15;4.90;;;;;;;17.58;64.76;99715.00;4995913;28;20047;-62
2021/06/16 04:32:42;;;;;;;7.43;4.50;;;;;;;17.66;64.96;99714.78;4995892;28;20064;-62
2021/06/16 04:35:12;;;;;;;7.75;4.25;;;;;;;17.73;65.04;99711.13;4995799;28;20054;-63
2021/06/16 04:37:48;;;;;;;;;;;;;;;17.80;65.10;99707.47;4996153;28;20145;-63
2021/06/16 04:40:21;;;;;;;9.23;5.20;;;;;;;17.86;65.79;99710.72;4995548;28;19922;-63
2021/06/16 04:42:53;;;;;;;8.88;4.82;;;;;;;17.95;66.03;99712.16;4995689;28;20054;-64
2021/06/16 04:45:23;;;;;;;9.63;4.88;;;;;;;18.07;65.81;99711.78;4995814;28;20433;-62
2021/06/16 04:47:57;;;;;;;8.73;4.68;;;;;;;18.13;65.57;99719.38;4995444;28;20042;-62
2021/06/16 04:50:30;;;;;;;9.38;4.45;;;;;;;18.24;64.70;99712.13;4995507;28;20108;-62
2021/06/16 04:53:02;;;;;;;6.63;3.85;;;;;;;18.33;63.31;99724.75;4995168;28;20081;-61
2021/06/16 04:55:35;;;;;;;7.05;4.22;;;;;;;18.33;62.86;99718.75;4995364;28;20058;-62
2021/06/16 04:58:07;;;;;;;5.55;3.78;;;;;;;18.46;61.98;99733.84;4995189;28;20139;-64
2021/06/16 05:00:42;;;;;;;10.25;4.25;;;;;;;18.55;61.46;99732.69;4995482;28;20061;-63
2021/06/16 05:03:16;;;;;;;8.00;4.32;;;;;;;18.66;61.14;99728.03;4995297;28;20062;-63
2021/06/16 05:05:48;;;;;;;8.60;4.47;;;;;;;18.79;60.75;99734.47;4995173;28;20050;-62
2021/06/16 05:08:20;;;;;;;6.75;4.07;;;;;;;18.97;60.63;99738.19;4995206;28;20065;-62
2021/06/16 05:10:53;;;;;;;8.45;4.45;;;;;;;19.02;60.53;99742.34;4995163;28;20054;-64
2021/06/16 05:13:27;;;;;;;11.07;4.35;;;;;;;19.16;60.52;99731.50;4995127;28;20108;-62
2021/06/16 05:15:59;;;;;;;9.75;4.63;;;;;;;19.53;59.97;99736.25;4994997;28;20090;-63
2021/06/16 05:18:33;;;;;;;9.45;4.38;;;;;;;20.02;58.79;99724.00;4994744;28;20058;-62
2021/06/16 05:21:09;;;;;;;6.40;4.32;;;;;;;20.29;57.91;99727.31;4994894;28;20068;-63
2021/06/16 05:23:43;;;;;;;10.10;4.50;;;;;;;20.28;57.46;99729.94;4994634;28;20077;-62
2021/06/16 05:26:13;;;;;;;8.07;4.50;;;;;;;20.28;57.33;99714.38;4993945;28;20508;-63
2021/06/16 05:28:45;;;;;;;9.93;4.53;;;;;;;20.40;57.30;99729.47;4994520;28;20124;-62
2021/06/16 05:31:17;;;;;;;8.38;4.28;;;;;;;20.51;56.93;99732.50;4994744;28;20050;-62
2021/06/16 05:33:52;;;;;;;11.68;5.20;;;;;;;20.58;57.97;99733.94;4995047;28;20054;-63
2021/06/16 05:36:21;;;;;;;9.23;4.75;;;;;;;20.73;57.49;99733.31;4994665;28;20054;-62
2021/06/16 05:38:54;;;;;;;10.35;4.50;;;;;;;20.79;57.10;99733.03;4994549;28;20054;-62
2021/06/16 05:41:26;;;;;;;8.27;3.97;;;;;;;20.97;56.77;99734.03;4994598;28;20053;-62
2021/06/16 05:43:58;;;;;;;8.52;4.22;;;;;;;21.18;56.39;99731.41;4994531;28;20062;-61
2021/06/16 05:46:28;;;;;;;8.70;4.10;;;;;;;21.34;56.00;99736.75;4994525;28;20493;-62
2021/06/16 05:49:02;;;;;;;8.48;4.00;;;;;;;21.40;55.57;99725.28;4994494;28;20051;-62
2021/06/16 05:51:34;;;;;;;6.78;3.97;;;;;;;21.46;55.46;99740.56;4994701;28;20062;-62
2021/06/16 05:54:10;;;;;;;7.53;4.45;;;;;;;21.49;55.28;99740.44;4994353;28;20054;-62
2021/06/16 05:56:40;;;;;;;6.88;4.50;;;;;;;21.76;54.96;99740.03;4994331;28;20058;-63
2021/06/16 05:59:30;;;;;;;9.43;3.97;;;;;;;22.31;54.51;99751.38;4994306;28;20046;-62
2021/06/16 06:02:00;;;;;;;8.30;4.10;;;;;;;22.56;53.69;99758.84;4994435;28;20496;-63
2021/06/16 06:04:34;;;;;;;8.18;3.72;;;;;;;22.50;52.78;99749.59;4994045;28;20046;-63
2021/06/16 06:07:05;;;;;;;7.13;3.30;;;;;;;22.55;52.20;99747.59;4994107;28;20058;-62
2021/06/16 06:09:37;;;;;;;7.18;3.80;;;;;;;22.74;51.67;99752.78;4994365;28;20066;-64
2021/06/16 06:12:10;;;;;;;7.55;3.70;;;;;;;22.77;51.60;99751.78;4994505;28;20065;-64
2021/06/16 06:14:43;;;;;;;9.35;4.25;;;;;;;22.88;51.55;99744.28;4994416;28;20124;-64
2021/06/16 06:17:15;;;;;;;9.13;4.40;;;;;;;23.06;51.07;99748.59;4994585;28;20492;-63
2021/06/16 06:19:50;;;;;;;6.90;4.00;;;;;;;22.89;51.55;99745.97;4994120;28;20051;-64
2021/06/16 06:22:19;;;;;;;6.68;3.55;;;;;;;22.77;52.11;99751.78;4994348;28;20054;-63
2021/06/16 06:24:48;;;;;;;;;;;;;;;22.78;52.37;99758.66;4994851;28;20081;-63
2021/06/16 06:27:20;;;;;;;9.07;4.07;;;;;;;22.97;52.48;99754.22;4994175;28;19922;-62
2021/06/16 06:29:53;;;;;;;5.07;3.38;;;;;;;23.17;52.01;99751.47;4994102;28;20057;-63
2021/06/16 06:32:25;;;;;;;8.90;3.83;;;;;;;23.50;51.40;99754.97;4993855;28;20054;-63
2021/06/16 06:34:56;;;;;;;10.25;4.10;;;;;;;23.72;51.19;99758.13;4993665;28;20042;-63
2021/06/16 06:37:26;;;;;;;5.80;3.65;;;;;;;23.91;50.52;99756.22;4993724;28;20046;-64
2021/06/16 06:39:55;;;;;;;;;;;;;;;24.15;50.34;99751.47;4994333;28;20141;-63
2021/06/16 06:42:28;;;;;;;9.02;3.90;;;;;;;24.22;49.09;99749.34;4994535;28;20026;-63
2021/06/16 06:45:01;;;;;;;6.53;3.53;;;;;;;24.22;48.36;99745.00;4994081;28;20077;-64
2021/06/16 06:47:34;;;;;;;7.28;3.67;;;;;;;24.35;48.21;99745.16;4993202;28;20101;-63
2021/06/16 06:50:11;;;;;;;7.38;3.28;;;;;;;24.43;47.88;99735.09;4993894;28;20054;-64
2021/06/16 06:52:42;;;;;;;6.00;3.22;;;;;;;24.69;47.68;99749.31;4993802;28;20081;-63
2021/06/16 06:55:14;;;;;;;6.70;3.78;;;;;;;24.79;47.33;99746.09;4993613;28;20060;-63
2021/06/16 06:57:45;;;;;;;10.60;4.05;;;;;;;24.87;46.63;99746.50;4993739;28;20046;-62
2021/06/16 07:00:19;;;;;;;9.05;3.90;;;;;;;24.98;46.68;99751.94;4993524;28;20129;-63
2021/06/16 07:02:48;;;;;;;8.27;4.00;;;;;;;25.13;46.09;99756.28;4993931;28;20051;-64
2021/06/16 07:05:20;;;;;;;7.75;3.50;;;;;;;25.17;46.34;99756.94;4993800;28;20053;-64
2021/06/16 07:07:50;;;;;;;5.18;3.10;;;;;;;25.20;45.91;99754.97;4993823;28;20412;-64
2021/06/16 07:10:22;;;;;;;;;;;;;;;25.01;45.02;99751.75;4994170;28;20051;-63
2021/06/16 07:12:51;;;;;;;8.85;3.80;;;;;;;25.10;44.94;99756.44;4993650;28;19922;-63
2021/06/16 07:15:21;;;;;;;6.47;3.53;;;;;;;25.29;44.80;99750.94;4993619;28;20101;-64
2021/06/16 07:17:53;;;;;;;8.35;3.53;;;;;;;25.39;45.80;99746.03;4996867;28;20400;-63
2021/06/16 07:20:27;;;;;;;6.68;3.20;;;;;;;25.52;44.51;99752.22;4997220;28;20396;-63
2021/06/16 07:23:00;;;;;;;7.65;3.30;;;;;;;25.66;44.04;99739.16;4997105;28;20512;-64
2021/06/16 07:25:30;;;;;;;4.88;3.10;;;;;;;25.64;44.09;99741.03;4996680;28;20054;-64
2021/06/16 07:28:02;;;;;;;;;;;;;;;25.48;43.99;99737.69;4997516;28;20101;-64
2021/06/16 07:30:34;;;;;;;7.97;3.20;;;;;;;25.45;43.26;99741.31;4997020;28;19922;-63
2021/06/16 07:33:09;;;;;;;6.10;3.22;;;;;;;25.43;42.46;99737.94;4996999;28;20062;-64
2021/06/16 07:35:46;;;;;;;5.00;2.72;;;;;;;25.44;42.44;99738.75;4996791;28;20057;-63
2021/06/16 07:38:15;;;;;;;6.40;3.42;;;;;;;25.50;42.16;99733.19;4996586;28;20050;-64
2021/06/16 07:40:45;;;;;;;5.28;2.75;;;;;;;25.64;40.52;99751.47;4996382;28;20049;-64
2021/06/16 07:43:17;;;;;;;8.63;3.40;;;;;;;25.73;40.36;99749.16;4997009;28;20054;-64
2021/06/16 07:45:50;;;;;;;8.27;3.28;;;;;;;25.83;41.38;99736.34;4996654;28;20047;-63
2021/06/16 07:48:19;;;;;;;6.25;3.60;;;;;;;25.71;41.56;99745.78;4996570;28;20050;-65
2021/06/16 07:50:50;;;;;;;6.85;3.67;;;;;;;25.83;41.82;99747.66;4996490;28;20061;-63
2021/06/16 07:53:20;;;;;;;6.78;3.63;;;;;;;25.88;41.47;99747.34;4996325;28;20102;-64
2021/06/16 07:55:52;;;;;;;5.50;3.13;;;;;;;26.19;40.70;99743.69;4996697;28;20116;-64
2021/06/16 07:58:24;;;;;;;5.18;2.97;;;;;;;26.22;41.37;99744.34;4996475;28;20121;-63
2021/06/16 08:00:55;;;;;;;7.88;3.30;;;;;;;26.14;41.90;99746.59;4978727;28;20084;-64
2021/06/16 08:03:24;;;;;;;5.72;3.25;;;;;;;26.16;42.35;99749.94;4996290;28;20515;-64
2021/06/16 08:05:55;;;;;;;;;;;;;;;26.27;41.62;99742.25;4996523;28;20237;-63
2021/06/16 08:08:39;;;;;;;7.10;3.63;;;;;;;26.38;41.11;99739.78;4996189;28;19960;-64
2021/06/16 08:11:08;;;;;;;4.65;2.88;;;;;;;26.36;42.30;99744.28;4996004;28;20073;-64
2021/06/16 08:13:41;;;;;;;6.50;3.40;;;;;;;26.50;42.92;99741.63;4996245;28;20228;-63
2021/06/16 08:16:10;;;;;;;4.80;2.97;;;;;;;26.40;42.57;99745.75;4997162;28;20057;-64
2021/06/16 08:18:42;;;;;;;6.28;3.25;;;;;;;26.51;42.36;99745.88;4996592;28;20073;-64
2021/06/16 08:21:17;;;;;;;4.85;3.00;;;;;;;26.86;42.23;99746.25;4996218;28;20051;-63
2021/06/16 08:23:47;;;;;;;6.80;3.10;;;;;;;27.00;41.80;99753.16;4995970;28;20492;-64
2021/06/16 08:26:20;;;;;;;8.02;3.42;;;;;;;27.24;41.19;99754.16;4994875;28;20061;-64
2021/06/16 08:28:53;;;;;;;6.13;3.03;;;;;;;27.07;40.89;99749.19;4995267;28;20519;-63
2021/06/16 08:31:25;;;;;;;5.18;3.08;;;;;;;26.86;40.71;99746.25;4995543;28;20061;-64
2021/06/16 08:33:58;;;;;;;7.13;3.58;;;;;;;26.63;40.83;99746.06;4995841;28;20055;-64
2021/06/16 08:36:32;;;;;;;6.10;3.40;;;;;;;26.86;40.45;99745.41;4995424;28;20069;-64
2021/06/16 08:39:20;;;;;;;6.68;3.30;;;;;;;26.98;41.01;99750.66;4990944;28;20050;-63
2021/06/16 08:41:49;;;;;;;;;;;;;;;26.93;41.84;99749.28;4994982;28;20060;-63
2021/06/16 08:44:21;;;;;;;;;;;;;;;27.27;42.55;99746.09;4996024;28;20011;-64
2021/06/16 08:46:52;;;;;;;4.47;3.08;;;;;;;27.49;42.08;99746.31;4995334;28;20260;-63
2021/06/16 08:49:26;;;;;;;5.13;3.13;;;;;;;27.60;41.13;99750.81;4995384;28;20455;-63
2021/06/16 08:51:58;;;;;;;7.28;3.10;;;;;;;27.57;41.53;99736.13;4995757;28;20073;-64
2021/06/16 08:54:31;;;;;;;4.75;2.80;;;;;;;27.70;40.89;99747.44;4995419;28;20082;-63
2021/06/16 08:57:03;;;;;;;5.47;3.17;;;;;;;27.58;40.06;99750.94;4995315;28;20140;-64
2021/06/16 08:59:33;;;;;;;4.47;2.90;;;;;;;27.60;40.27;99743.78;4995487;28;20057;-64
2021/06/16 09:02:02;;;;;;;;;;;;;;;27.91;39.20;99738.06;4978438;28;20382;-64
2021/06/16 09:04:48;;;;;;;6.22;3.22;;;;;;;28.05;39.38;99744.97;4994908;28;20008;-63
2021/06/16 09:07:20;;;;;;;6.50;3.10;;;;;;;28.03;39.81;99741.63;4995276;28;20385;-64
2021/06/16 09:10:09;;;;;;;5.68;3.15;;;;;;;28.12;40.38;99740.16;4995165;28;20126;-64
2021/06/16 09:12:47;;;;;;;4.50;2.65;;;;;;;28.25;40.24;99740.91;4995162;28;20084;-64
2021/06/16 09:15:21;;;;;;;6.40;2.88;;;;;;;28.54;40.06;99739.63;4995127;28;20065;-65
2021/06/16 09:18:02;;;;;;;5.15;2.85;;;;;;;28.40;39.44;99739.81;4995021;28;20069;-64
2021/06/16 09:20:39;;;;;;;6.50;2.78;;;;;;;28.35;39.82;99734.06;4994758;28;20050;-64
2021/06/16 09:23:18;;;;;;;4.28;2.45;;;;;;;28.26;39.65;99732.09;4995124;28;20408;-65
2021/06/16 09:26:13;;;;;;;5.55;2.85;;;;;;;28.15;39.51;99729.41;4994268;28;20117;-63
2021/06/16 09:28:45;;;;;;;4.07;2.45;;;;;;;28.33;39.62;99733.34;4994798;28;20448;-63
2021/06/16 09:31:16;;;;;;;4.75;2.60;;;;;;;28.60;39.79;99741.03;4994733;28;20088;-63
2021/06/16 09:33:46;;;;;;;4.13;2.47;;;;;;;28.82;39.79;99731.41;4994847;28;20445;-63
2021/06/16 09:36:21;;;;;;;7.20;3.10;;;;;;;29.13;38.84;99738.66;4994655;28;20496;-63
2021/06/16 09:38:55;;;;;;;5.28;2.65;;;;;;;29.12;38.14;99734.38;4994686;28;20065;-64
2021/06/16 09:41:28;;;;;;;4.10;2.50;;;;;;;29.17;38.01;99732.22;4993710;28;20129;-63
2021/06/16 09:43:58;;;;;;;5.22;3.17;;;;;;;29.17;37.84;99734.84;4994467;28;20508;-64
2021/06/16 09:46:28;;;;;;;4.43;2.60;;;;;;;29.13;38.28;99730.78;4993957;28;20053;-66
2021/06/16 09:48:57;;;;;;;4.78;2.58;;;;;;;29.01;38.11;99726.44;4994055;28;20046;-63
2021/06/16 09:51:27;;;;;;;5.03;2.38;;;;;;;28.95;38.31;99726.06;4994544;28;20069;-65
2021/06/16 09:54:13;;;;;;;4.47;2.40;;;;;;;28.90;37.67;99729.06;4994141;28;20126;-65
2021/06/16 09:56:44;;;;;;;4.22;2.20;;;;;;;29.07;38.40;99726.00;4994762;28;20607;-64
2021/06/16 09:59:37;;;;;;;4.97;2.70;;;;;;;28.85;37.75;99723.31;4994473;28;20543;-63
2021/06/16 10:02:15;;;;;;;5.18;2.70;;;;;;;28.76;37.72;99718.75;4993956;28;20043;-63
2021/06/16 10:04:50;;;;;;;5.03;2.78;;;;;;;29.15;37.67;99728.84;4994274;28;20085;-65
2021/06/16 10:07:24;;;;;;;5.50;2.45;;;;;;;29.48;37.39;99712.31;4993907;28;20496;-65
2021/06/16 10:10:00;;;;;;;5.50;2.60;;;;;;;29.32;37.90;99724.16;4994101;28;20492;-66
2021/06/16 10:12:31;;;;;;;4.15;2.35;;;;;;;29.16;37.06;99725.28;4994652;28;20459;-64
2021/06/16 10:15:06;;;;;;;3.92;2.30;;;;;;;29.06;38.10;99718.19;4994268;28;20058;-64
2021/06/16 10:17:39;;;;;;;5.03;2.65;;;;;;;29.24;38.06;99727.38;4994298;28;20059;-64
2021/06/16 10:20:15;;;;;;;4.97;2.50;;;;;;;29.58;38.41;99721.16;4994277;28;20058;-65
2021/06/16 10:22:49;;;;;;;6.63;2.38;;;;;;;29.82;37.31;99726.31;4994397;28;20472;-66
2021/06/16 10:25:23;;;;;;;4.47;2.65;;;;;;;30.01;36.27;99717.78;4993811;28;20054;-64
2021/06/16 10:27:56;;;;;;;3.50;2.40;;;;;;;29.93;36.18;99726.28;4993857;28;20488;-65
2021/06/16 10:30:30;;;;;;;4.18;2.22;;;;;;;30.03;35.65;99721.97;4993984;28;20058;-66
2021/06/16 10:33:00;;;;;;;4.35;2.60;;;;;;;30.14;34.96;99719.31;4994029;28;20488;-65
2021/06/16 10:35:36;;;;;;;4.03;2.33;;;;;;;30.04;35.42;99713.13;4993860;28;20065;-66
2021/06/16 10:38:13;;;;;;;5.32;2.30;;;;;;;29.81;36.14;99717.59;4994014;28;20066;-65
2021/06/16 10:40:51;;;;;;;5.45;2.45;;;;;;;29.81;36.03;99711.47;4994021;28;20058;-65
2021/06/16 10:43:44;;;;;;;4.53;2.20;;;;;;;29.76;35.99;99710.97;4994167;28;20444;-67
2021/06/16 10:46:15;;;;;;;3.60;2.20;;;;;;;29.66;36.68;99715.28;4993664;28;20613;-64
2021/06/16 10:48:56;;;;;;;4.32;2.10;;;;;;;29.97;37.86;99717.19;4994146;28;20065;-64
2021/06/16 10:51:30;;;;;;;3.75;2.20;;;;;;;29.87;36.04;99711.00;4994823;28;20058;-65
2021/06/16 10:54:24;;;;;;;4.57;2.35;;;;;;;29.72;35.57;99706.91;4997943;28;20484;-64
2021/06/16 10:56:59;;;;;;;4.65;2.40;;;;;;;29.83;35.92;99713.03;4997552;28;20042;-64
2021/06/16 10:59:54;;;;;;;4.07;2.20;;;;;;;29.98;36.31;99713.59;4997405;28;20409;-65
2021/06/16 11:02:49;;;;;;;4.18;2.30;;;;;;;29.76;36.61;99703.94;4995239;28;20133;-68
2021/06/16 11:05:20;;;;;;;4.25;2.40;;;;;;;29.72;35.41;99709.56;4997446;28;20448;-64
2021/06/16 11:07:50;;;;;;;4.85;2.45;;;;;;;29.99;36.23;99710.03;4997748;28;20057;-65
2021/06/16 11:10:22;;;;;;;3.17;1.98;;;;;;;30.20;35.16;99704.81;4997499;28;20106;-64
2021/06/16 11:12:55;;;;;;;3.72;2.25;;;;;;;30.22;34.71;99694.97;4997330;28;20050;-65
2021/06/16 11:15:34;;;;;;;3.38;2.00;;;;;;;30.24;34.24;99688.63;4997221;28;20101;-66
2021/06/16 11:18:06;;;;;;;4.13;2.00;;;;;;;30.15;33.58;99692.03;4997159;28;20109;-63
2021/06/16 11:20:41;;;;;;;3.97;2.30;;;;;;;30.29;34.54;99685.63;4997232;28;20061;-64
2021/06/16 11:23:24;;;;;;;3.95;2.25;;;;;;;30.39;33.56;99684.78;4996830;28;20061;-65
2021/06/16 11:25:54;;;;;;;4.05;2.20;;;;;;;30.59;33.76;99683.13;4996394;28;20085;-64
2021/06/16 11:28:36;;;;;;;4.35;2.50;;;;;;;30.86;35.79;99683.44;4996688;28;20050;-65
2021/06/16 11:31:10;;;;;;;3.63;2.30;;;;;;;31.05;34.98;99678.31;4996962;28;20121;-65
2021/06/16 11:33:51;;;;;;;3.50;2.30;;;;;;;31.25;35.41;99687.16;4996862;28;20042;-66
2021/06/16 11:36:43;;;;;;;4.57;2.45;;;;;;;31.42;35.17;99683.91;4996488;28;20055;-63
2021/06/16 11:39:16;;;;;;;3.33;2.00;;;;;;;31.63;33.41;99679.44;4996772;28;20444;-64
2021/06/16 11:41:49;;;;;;;4.50;2.42;;;;;;;31.17;33.29;99683.53;4996779;28;20054;-63
2021/06/16 11:44:24;;;;;;;3.65;2.25;;;;;;;31.36;34.58;99681.78;4996791;28;20089;-64
2021/06/16 11:46:58;;;;;;;3.33;2.13;;;;;;;31.28;34.02;99672.88;4996630;28;20054;-63
2021/06/16 11:49:32;;;;;;;4.88;2.47;;;;;;;31.57;33.59;99676.50;4996595;28;20058;-62
2021/06/16 11:52:06;;;;;;;4.78;2.35;;;;;;;31.87;33.88;99675.59;4996521;28;20066;-64
2021/06/16 11:54:40;;;;;;;4.07;2.50;;;;;;;32.00;33.19;99673.56;4996376;28;20050;-64
2021/06/16 11:57:15;;;;;;;3.53;2.15;;;;;;;31.83;33.08;99672.41;4979027;28;20058;-66
2021/06/16 11:59:51;;;;;;;3.95;2.20;;;;;;;31.97;31.69;99674.69;4996358;28;20050;-62
2021/06/16 12:02:28;;;;;;;6.25;2.20;;;;;;;31.84;30.94;99662.69;4995836;28;20080;-68
2021/06/16 12:05:02;;;;;;;4.28;2.30;;;;;;;31.73;33.79;99656.53;4995559;28;20053;-66
2021/06/16 12:07:33;;;;;;;3.83;2.05;;;;;;;31.80;33.14;99657.66;4996396;28;20113;-65